sensor_id;sensor_type;location;lat;lon;timestamp;P1;durP1;ratioP1;P2;durP2;ratioP2
19798;SDS011;10059;59.850;10.454;2022-12-01T00:01:23;3.83;;;2.50;;
19798;SDS011;10059;59.850;10.454;2022-12-01T00:03:50;3.37;;;2.50;;
19798;SDS011;10059;59.850;10.454;2022-12-01T00:06:19;2.87;;;2.17;;
19798;SDS011;10059;59.850;10.454;2022-12-01T00:08:47;3.30;;;2.40;;
19798;SDS011;10059;59.850;10.454;2022-12-01T00:11:34;3.83;;;2.50;;
19798;SDS011;10059;59.850;10.454;2022-12-01T00:14:02;5.87;;;2.50;;
19798;SDS011;10059;59.850;10.454;2022-12-01T00:16:29;2.93;;;2.30;;
19798;SDS011;10059;59.850;10.454;2022-12-01T00:18:56;3.50;;;2.53;;
19798;SDS011;10059;59.850;10.454;2022-12-01T00:21:25;3.97;;;2.90;;
19798;SDS011;10059;59.850;10.454;2022-12-01T00:23:53;3.10;;;2.30;;
19798;SDS011;10059;59.850;10.454;2022-12-01T00:26:21;3.20;;;2.40;;
19798;SDS011;10059;59.850;10.454;2022-12-01T00:28:48;2.97;;;2.10;;
19798;SDS011;10059;59.850;10.454;2022-12-01T00:31:16;3.43;;;2.43;;
19798;SDS011;10059;59.850;10.454;2022-12-01T00:33:43;3.83;;;2.40;;
19798;SDS011;10059;59.850;10.454;2022-12-01T00:36:10;4.50;;;2.30;;
19798;SDS011;10059;59.850;10.454;2022-12-01T00:38:38;3.30;;;2.30;;
19798;SDS011;10059;59.850;10.454;2022-12-01T00:41:05;3.17;;;2.40;;
19798;SDS011;10059;59.850;10.454;2022-12-01T00:43:32;3.47;;;2.20;;
19798;SDS011;10059;59.850;10.454;2022-12-01T00:45:59;4.60;;;2.10;;
19798;SDS011;10059;59.850;10.454;2022-12-01T00:48:26;3.23;;;2.17;;
19798;SDS011;10059;59.850;10.454;2022-12-01T00:50:53;3.67;;;2.10;;
19798;SDS011;10059;59.850;10.454;2022-12-01T00:53:21;3.73;;;2.43;;
19798;SDS011;10059;59.850;10.454;2022-12-01T00:55:50;3.43;;;2.30;;
19798;SDS011;10059;59.850;10.454;2022-12-01T00:58:17;3.33;;;2.20;;
19798;SDS011;10059;59.850;10.454;2022-12-01T01:00:45;3.03;;;2.20;;
19798;SDS011;10059;59.850;10.454;2022-12-01T01:03:12;2.80;;;2.00;;
19798;SDS011;10059;59.850;10.454;2022-12-01T01:05:39;3.47;;;2.10;;
19798;SDS011;10059;59.850;10.454;2022-12-01T01:08:07;3.20;;;2.27;;
19798;SDS011;10059;59.850;10.454;2022-12-01T01:10:36;2.23;;;1.80;;
19798;SDS011;10059;59.850;10.454;2022-12-01T01:13:05;2.70;;;1.93;;
19798;SDS011;10059;59.850;10.454;2022-12-01T01:15:32;3.73;;;2.00;;
19798;SDS011;10059;59.850;10.454;2022-12-01T01:17:59;2.90;;;2.27;;
19798;SDS011;10059;59.850;10.454;2022-12-01T01:20:26;2.40;;;1.90;;
19798;SDS011;10059;59.850;10.454;2022-12-01T01:22:54;2.60;;;2.07;;
19798;SDS011;10059;59.850;10.454;2022-12-01T01:25:21;2.80;;;1.93;;
19798;SDS011;10059;59.850;10.454;2022-12-01T01:27:48;2.90;;;2.20;;
19798;SDS011;10059;59.850;10.454;2022-12-01T01:30:17;4.57;;;2.00;;
19798;SDS011;10059;59.850;10.454;2022-12-01T01:32:44;2.87;;;1.90;;
19798;SDS011;10059;59.850;10.454;2022-12-01T01:35:11;2.03;;;1.70;;
19798;SDS011;10059;59.850;10.454;2022-12-01T01:37:38;2.33;;;1.80;;
19798;SDS011;10059;59.850;10.454;2022-12-01T01:40:05;2.60;;;1.93;;
19798;SDS011;10059;59.850;10.454;2022-12-01T01:42:33;3.00;;;1.83;;
19798;SDS011;10059;59.850;10.454;2022-12-01T01:45:00;3.03;;;2.10;;
19798;SDS011;10059;59.850;10.454;2022-12-01T01:47:29;3.07;;;2.10;;
19798;SDS011;10059;59.850;10.454;2022-12-01T01:49:59;2.73;;;2.10;;
19798;SDS011;10059;59.850;10.454;2022-12-01T01:52:32;3.47;;;2.30;;
19798;SDS011;10059;59.850;10.454;2022-12-01T01:55:02;3.30;;;2.20;;
19798;SDS011;10059;59.850;10.454;2022-12-01T01:57:29;3.60;;;2.40;;
19798;SDS011;10059;59.850;10.454;2022-12-01T01:59:58;5.03;;;2.67;;
19798;SDS011;10059;59.850;10.454;2022-12-01T02:02:31;3.30;;;2.10;;
19798;SDS011;10059;59.850;10.454;2022-12-01T02:04:59;2.80;;;1.97;;
19798;SDS011;10059;59.850;10.454;2022-12-01T02:07:27;3.40;;;2.23;;
19798;SDS011;10059;59.850;10.454;2022-12-01T02:09:54;2.20;;;1.90;;
19798;SDS011;10059;59.850;10.454;2022-12-01T02:12:29;2.53;;;1.80;;
19798;SDS011;10059;59.850;10.454;2022-12-01T02:15:14;1.93;;;1.57;;
19798;SDS011;10059;59.850;10.454;2022-12-01T02:17:53;2.33;;;1.70;;
19798;SDS011;10059;59.850;10.454;2022-12-01T02:23:37;2.20;;;1.90;;
19798;SDS011;10059;59.850;10.454;2022-12-01T02:26:26;1.67;;;1.30;;
19798;SDS011;10059;59.850;10.454;2022-12-01T02:29:18;2.23;;;1.57;;
19798;SDS011;10059;59.850;10.454;2022-12-01T02:32:24;1.97;;;1.53;;
19798;SDS011;10059;59.850;10.454;2022-12-01T02:34:59;1.80;;;1.50;;
19798;SDS011;10059;59.850;10.454;2022-12-01T02:37:34;1.87;;;1.43;;
19798;SDS011;10059;59.850;10.454;2022-12-01T02:40:10;1.63;;;1.53;;
19798;SDS011;10059;59.850;10.454;2022-12-01T02:42:45;1.67;;;1.50;;
19798;SDS011;10059;59.850;10.454;2022-12-01T02:45:19;2.17;;;1.60;;
19798;SDS011;10059;59.850;10.454;2022-12-01T02:47:55;2.23;;;1.83;;
19798;SDS011;10059;59.850;10.454;2022-12-01T02:50:26;1.90;;;1.70;;
19798;SDS011;10059;59.850;10.454;2022-12-01T02:52:54;2.10;;;1.60;;
19798;SDS011;10059;59.850;10.454;2022-12-01T02:55:22;2.60;;;1.87;;
19798;SDS011;10059;59.850;10.454;2022-12-01T02:57:49;1.77;;;1.47;;
19798;SDS011;10059;59.850;10.454;2022-12-01T03:00:18;1.90;;;1.40;;
19798;SDS011;10059;59.850;10.454;2022-12-01T03:02:49;1.80;;;1.50;;
19798;SDS011;10059;59.850;10.454;2022-12-01T03:05:33;2.90;;;1.83;;
19798;SDS011;10059;59.850;10.454;2022-12-01T03:08:08;2.67;;;2.10;;
19798;SDS011;10059;59.850;10.454;2022-12-01T03:10:47;2.30;;;2.00;;
19798;SDS011;10059;59.850;10.454;2022-12-01T03:13:20;2.80;;;2.13;;
19798;SDS011;10059;59.850;10.454;2022-12-01T03:15:56;2.40;;;1.73;;
19798;SDS011;10059;59.850;10.454;2022-12-01T03:18:31;2.63;;;1.83;;
19798;SDS011;10059;59.850;10.454;2022-12-01T03:21:03;2.43;;;2.10;;
19798;SDS011;10059;59.850;10.454;2022-12-01T03:23:36;2.50;;;1.90;;
19798;SDS011;10059;59.850;10.454;2022-12-01T03:26:07;2.50;;;1.90;;
19798;SDS011;10059;59.850;10.454;2022-12-01T03:28:41;2.60;;;1.83;;
19798;SDS011;10059;59.850;10.454;2022-12-01T03:31:13;2.87;;;2.03;;
19798;SDS011;10059;59.850;10.454;2022-12-01T03:33:46;2.13;;;1.70;;
19798;SDS011;10059;59.850;10.454;2022-12-01T03:36:18;2.77;;;2.10;;
19798;SDS011;10059;59.850;10.454;2022-12-01T03:38:50;2.30;;;1.90;;
19798;SDS011;10059;59.850;10.454;2022-12-01T03:41:24;2.40;;;1.80;;
19798;SDS011;10059;59.850;10.454;2022-12-01T03:43:54;2.40;;;1.90;;
19798;SDS011;10059;59.850;10.454;2022-12-01T03:46:28;2.20;;;1.73;;
19798;SDS011;10059;59.850;10.454;2022-12-01T03:49:03;2.87;;;2.10;;
19798;SDS011;10059;59.850;10.454;2022-12-01T03:51:34;2.07;;;1.80;;
19798;SDS011;10059;59.850;10.454;2022-12-01T03:54:09;2.63;;;1.97;;
19798;SDS011;10059;59.850;10.454;2022-12-01T03:56:42;2.80;;;2.00;;
19798;SDS011;10059;59.850;10.454;2022-12-01T03:59:13;3.33;;;2.30;;
19798;SDS011;10059;59.850;10.454;2022-12-01T04:01:43;3.80;;;2.40;;
19798;SDS011;10059;59.850;10.454;2022-12-01T04:04:13;2.53;;;1.90;;
19798;SDS011;10059;59.850;10.454;2022-12-01T04:06:41;2.97;;;2.17;;
19798;SDS011;10059;59.850;10.454;2022-12-01T04:09:11;3.17;;;2.13;;
19798;SDS011;10059;59.850;10.454;2022-12-01T04:11:38;2.70;;;1.80;;
19798;SDS011;10059;59.850;10.454;2022-12-01T04:14:23;2.17;;;1.67;;
19798;SDS011;10059;59.850;10.454;2022-12-01T04:16:50;2.47;;;1.60;;
19798;SDS011;10059;59.850;10.454;2022-12-01T04:19:18;1.90;;;1.60;;
19798;SDS011;10059;59.850;10.454;2022-12-01T04:21:45;1.70;;;1.60;;
19798;SDS011;10059;59.850;10.454;2022-12-01T04:24:12;1.90;;;1.50;;
19798;SDS011;10059;59.850;10.454;2022-12-01T04:26:39;1.80;;;1.50;;
19798;SDS011;10059;59.850;10.454;2022-12-01T04:29:08;2.23;;;1.67;;
19798;SDS011;10059;59.850;10.454;2022-12-01T04:31:36;1.63;;;1.47;;
19798;SDS011;10059;59.850;10.454;2022-12-01T04:34:03;2.03;;;1.57;;
19798;SDS011;10059;59.850;10.454;2022-12-01T04:36:32;2.63;;;1.63;;
19798;SDS011;10059;59.850;10.454;2022-12-01T04:39:00;1.63;;;1.40;;
19798;SDS011;10059;59.850;10.454;2022-12-01T04:41:28;2.80;;;1.90;;
19798;SDS011;10059;59.850;10.454;2022-12-01T04:43:55;1.73;;;1.53;;
19798;SDS011;10059;59.850;10.454;2022-12-01T04:46:22;2.63;;;1.90;;
19798;SDS011;10059;59.850;10.454;2022-12-01T04:48:49;2.13;;;1.70;;
19798;SDS011;10059;59.850;10.454;2022-12-01T04:51:16;2.40;;;1.73;;
19798;SDS011;10059;59.850;10.454;2022-12-01T04:53:45;2.60;;;2.00;;
19798;SDS011;10059;59.850;10.454;2022-12-01T04:56:12;2.63;;;2.00;;
19798;SDS011;10059;59.850;10.454;2022-12-01T04:58:39;2.70;;;2.07;;
19798;SDS011;10059;59.850;10.454;2022-12-01T05:01:06;3.53;;;2.17;;
19798;SDS011;10059;59.850;10.454;2022-12-01T05:03:36;2.80;;;2.10;;
19798;SDS011;10059;59.850;10.454;2022-12-01T05:06:04;2.57;;;1.90;;
19798;SDS011;10059;59.850;10.454;2022-12-01T05:08:32;4.10;;;1.80;;
19798;SDS011;10059;59.850;10.454;2022-12-01T05:11:01;2.57;;;1.90;;
19798;SDS011;10059;59.850;10.454;2022-12-01T05:13:29;3.10;;;1.80;;
19798;SDS011;10059;59.850;10.454;2022-12-01T05:16:02;2.40;;;1.70;;
19798;SDS011;10059;59.850;10.454;2022-12-01T05:18:30;2.20;;;1.77;;
19798;SDS011;10059;59.850;10.454;2022-12-01T05:20:57;2.43;;;1.80;;
19798;SDS011;10059;59.850;10.454;2022-12-01T05:23:23;2.60;;;1.80;;
19798;SDS011;10059;59.850;10.454;2022-12-01T05:25:50;4.40;;;1.90;;
19798;SDS011;10059;59.850;10.454;2022-12-01T05:28:19;2.33;;;1.80;;
19798;SDS011;10059;59.850;10.454;2022-12-01T05:30:47;11.00;;;3.30;;
19798;SDS011;10059;59.850;10.454;2022-12-01T05:33:14;2.87;;;2.00;;
19798;SDS011;10059;59.850;10.454;2022-12-01T05:35:42;4.07;;;2.30;;
19798;SDS011;10059;59.850;10.454;2022-12-01T05:38:09;2.87;;;2.17;;
19798;SDS011;10059;59.850;10.454;2022-12-01T05:40:36;2.70;;;2.10;;
19798;SDS011;10059;59.850;10.454;2022-12-01T05:43:03;2.80;;;2.00;;
19798;SDS011;10059;59.850;10.454;2022-12-01T05:45:31;2.63;;;2.10;;
19798;SDS011;10059;59.850;10.454;2022-12-01T05:47:59;2.27;;;1.90;;
19798;SDS011;10059;59.850;10.454;2022-12-01T05:50:27;4.13;;;2.87;;
19798;SDS011;10059;59.850;10.454;2022-12-01T05:52:55;6.40;;;3.57;;
19798;SDS011;10059;59.850;10.454;2022-12-01T05:55:22;14.13;;;6.73;;
19798;SDS011;10059;59.850;10.454;2022-12-01T05:57:49;8.90;;;4.53;;
19798;SDS011;10059;59.850;10.454;2022-12-01T06:00:16;8.13;;;4.50;;
19798;SDS011;10059;59.850;10.454;2022-12-01T06:02:45;7.50;;;3.80;;
19798;SDS011;10059;59.850;10.454;2022-12-01T06:05:12;11.27;;;5.73;;
19798;SDS011;10059;59.850;10.454;2022-12-01T06:07:39;21.17;;;10.67;;
19798;SDS011;10059;59.850;10.454;2022-12-01T06:10:06;40.33;;;18.43;;
19798;SDS011;10059;59.850;10.454;2022-12-01T06:12:34;50.37;;;14.60;;
19798;SDS011;10059;59.850;10.454;2022-12-01T06:15:02;19.13;;;9.33;;
19798;SDS011;10059;59.850;10.454;2022-12-01T06:17:30;12.07;;;6.83;;
19798;SDS011;10059;59.850;10.454;2022-12-01T06:19:59;17.27;;;8.37;;
19798;SDS011;10059;59.850;10.454;2022-12-01T06:22:26;15.47;;;7.97;;
19798;SDS011;10059;59.850;10.454;2022-12-01T06:24:53;15.30;;;7.53;;
19798;SDS011;10059;59.850;10.454;2022-12-01T06:27:19;9.80;;;4.93;;
19798;SDS011;10059;59.850;10.454;2022-12-01T06:29:46;7.10;;;3.43;;
19798;SDS011;10059;59.850;10.454;2022-12-01T06:32:14;7.30;;;3.87;;
19798;SDS011;10059;59.850;10.454;2022-12-01T06:34:41;5.63;;;3.33;;
19798;SDS011;10059;59.850;10.454;2022-12-01T06:37:10;5.87;;;3.40;;
19798;SDS011;10059;59.850;10.454;2022-12-01T06:39:39;7.07;;;3.77;;
19798;SDS011;10059;59.850;10.454;2022-12-01T06:42:06;6.90;;;3.20;;
19798;SDS011;10059;59.850;10.454;2022-12-01T06:44:33;8.47;;;3.27;;
19798;SDS011;10059;59.850;10.454;2022-12-01T06:47:00;5.73;;;3.43;;
19798;SDS011;10059;59.850;10.454;2022-12-01T06:49:27;7.93;;;4.00;;
19798;SDS011;10059;59.850;10.454;2022-12-01T06:51:56;7.20;;;4.43;;
19798;SDS011;10059;59.850;10.454;2022-12-01T06:54:24;6.60;;;4.10;;
19798;SDS011;10059;59.850;10.454;2022-12-01T06:56:51;5.57;;;3.83;;
19798;SDS011;10059;59.850;10.454;2022-12-01T06:59:18;6.40;;;4.07;;
19798;SDS011;10059;59.850;10.454;2022-12-01T07:01:47;6.83;;;4.40;;
19798;SDS011;10059;59.850;10.454;2022-12-01T07:04:13;7.22;;;4.78;;
19798;SDS011;10059;59.850;10.454;2022-12-01T07:06:40;6.90;;;4.30;;
19798;SDS011;10059;59.850;10.454;2022-12-01T07:09:07;7.57;;;4.53;;
19798;SDS011;10059;59.850;10.454;2022-12-01T07:11:36;7.07;;;4.00;;
19798;SDS011;10059;59.850;10.454;2022-12-01T07:14:02;6.60;;;4.30;;
19798;SDS011;10059;59.850;10.454;2022-12-01T07:16:29;9.13;;;5.70;;
19798;SDS011;10059;59.850;10.454;2022-12-01T07:18:56;12.53;;;6.80;;
19798;SDS011;10059;59.850;10.454;2022-12-01T07:21:24;13.17;;;6.83;;
19798;SDS011;10059;59.850;10.454;2022-12-01T07:23:51;11.70;;;6.53;;
19798;SDS011;10059;59.850;10.454;2022-12-01T07:26:17;9.07;;;6.00;;
19798;SDS011;10059;59.850;10.454;2022-12-01T07:28:46;8.13;;;4.90;;
19798;SDS011;10059;59.850;10.454;2022-12-01T07:31:13;7.93;;;4.80;;
19798;SDS011;10059;59.850;10.454;2022-12-01T07:33:41;9.87;;;5.30;;
19798;SDS011;10059;59.850;10.454;2022-12-01T07:36:08;10.00;;;5.00;;
19798;SDS011;10059;59.850;10.454;2022-12-01T07:38:36;7.97;;;5.30;;
19798;SDS011;10059;59.850;10.454;2022-12-01T07:41:04;9.27;;;5.60;;
19798;SDS011;10059;59.850;10.454;2022-12-01T07:43:32;9.10;;;5.67;;
19798;SDS011;10059;59.850;10.454;2022-12-01T07:46:05;10.80;;;5.30;;
19798;SDS011;10059;59.850;10.454;2022-12-01T07:48:33;11.37;;;5.20;;
19798;SDS011;10059;59.850;10.454;2022-12-01T07:51:01;10.37;;;5.30;;
19798;SDS011;10059;59.850;10.454;2022-12-01T07:53:28;8.97;;;5.40;;
19798;SDS011;10059;59.850;10.454;2022-12-01T07:55:55;8.60;;;4.33;;
19798;SDS011;10059;59.850;10.454;2022-12-01T07:58:22;10.07;;;4.37;;
19798;SDS011;10059;59.850;10.454;2022-12-01T08:00:49;7.10;;;3.93;;
19798;SDS011;10059;59.850;10.454;2022-12-01T08:03:17;5.80;;;3.83;;
19798;SDS011;10059;59.850;10.454;2022-12-01T08:05:45;6.73;;;3.23;;
19798;SDS011;10059;59.850;10.454;2022-12-01T08:08:21;6.20;;;3.67;;
19798;SDS011;10059;59.850;10.454;2022-12-01T08:10:48;5.53;;;3.13;;
19798;SDS011;10059;59.850;10.454;2022-12-01T08:13:14;4.30;;;2.70;;
19798;SDS011;10059;59.850;10.454;2022-12-01T08:15:41;6.43;;;3.30;;
19798;SDS011;10059;59.850;10.454;2022-12-01T08:18:08;5.33;;;3.10;;
19798;SDS011;10059;59.850;10.454;2022-12-01T08:20:37;4.33;;;2.90;;
19798;SDS011;10059;59.850;10.454;2022-12-01T08:23:04;5.30;;;2.70;;
19798;SDS011;10059;59.850;10.454;2022-12-01T08:25:32;5.77;;;3.30;;
19798;SDS011;10059;59.850;10.454;2022-12-01T08:27:59;4.07;;;2.90;;
19798;SDS011;10059;59.850;10.454;2022-12-01T08:30:26;5.53;;;2.83;;
19798;SDS011;10059;59.850;10.454;2022-12-01T08:32:54;4.47;;;3.55;;
19798;SDS011;10059;59.850;10.454;2022-12-01T08:35:21;4.33;;;3.20;;
19798;SDS011;10059;59.850;10.454;2022-12-01T08:37:51;4.60;;;3.00;;
19798;SDS011;10059;59.850;10.454;2022-12-01T08:40:18;4.77;;;3.03;;
19798;SDS011;10059;59.850;10.454;2022-12-01T08:42:46;4.90;;;3.27;;
19798;SDS011;10059;59.850;10.454;2022-12-01T08:45:13;5.30;;;3.23;;
19798;SDS011;10059;59.850;10.454;2022-12-01T08:47:40;4.40;;;2.83;;
19798;SDS011;10059;59.850;10.454;2022-12-01T08:50:09;6.60;;;2.70;;
19798;SDS011;10059;59.850;10.454;2022-12-01T08:52:36;4.27;;;2.97;;
19798;SDS011;10059;59.850;10.454;2022-12-01T08:55:06;6.60;;;4.33;;
19798;SDS011;10059;59.850;10.454;2022-12-01T08:57:33;7.17;;;4.20;;
19798;SDS011;10059;59.850;10.454;2022-12-01T09:00:00;5.50;;;2.70;;
19798;SDS011;10059;59.850;10.454;2022-12-01T09:02:27;4.50;;;2.60;;
19798;SDS011;10059;59.850;10.454;2022-12-01T09:04:54;6.57;;;2.80;;
19798;SDS011;10059;59.850;10.454;2022-12-01T09:07:21;5.20;;;3.37;;
19798;SDS011;10059;59.850;10.454;2022-12-01T09:09:51;8.10;;;4.63;;
19798;SDS011;10059;59.850;10.454;2022-12-01T09:12:19;6.73;;;3.90;;
19798;SDS011;10059;59.850;10.454;2022-12-01T09:14:46;5.73;;;3.70;;
19798;SDS011;10059;59.850;10.454;2022-12-01T09:17:14;8.00;;;4.93;;
19798;SDS011;10059;59.850;10.454;2022-12-01T09:19:42;7.67;;;4.47;;
19798;SDS011;10059;59.850;10.454;2022-12-01T09:22:09;8.07;;;4.60;;
19798;SDS011;10059;59.850;10.454;2022-12-01T09:24:37;7.57;;;4.80;;
19798;SDS011;10059;59.850;10.454;2022-12-01T09:27:04;7.60;;;4.43;;
19798;SDS011;10059;59.850;10.454;2022-12-01T09:29:33;5.57;;;3.57;;
19798;SDS011;10059;59.850;10.454;2022-12-01T09:32:00;7.67;;;3.83;;
19798;SDS011;10059;59.850;10.454;2022-12-01T09:34:26;5.23;;;3.40;;
19798;SDS011;10059;59.850;10.454;2022-12-01T09:36:54;3.87;;;2.90;;
19798;SDS011;10059;59.850;10.454;2022-12-01T09:39:22;5.23;;;3.57;;
19798;SDS011;10059;59.850;10.454;2022-12-01T09:41:51;7.73;;;3.47;;
19798;SDS011;10059;59.850;10.454;2022-12-01T09:44:27;5.40;;;3.77;;
19798;SDS011;10059;59.850;10.454;2022-12-01T09:47:02;5.95;;;3.67;;
19798;SDS011;10059;59.850;10.454;2022-12-01T09:49:38;5.40;;;4.33;;
19798;SDS011;10059;59.850;10.454;2022-12-01T09:52:10;4.80;;;3.40;;
19798;SDS011;10059;59.850;10.454;2022-12-01T09:54:39;4.93;;;3.50;;
19798;SDS011;10059;59.850;10.454;2022-12-01T09:57:08;6.43;;;4.10;;
19798;SDS011;10059;59.850;10.454;2022-12-01T09:59:40;5.40;;;3.70;;
19798;SDS011;10059;59.850;10.454;2022-12-01T10:02:16;4.83;;;3.50;;
19798;SDS011;10059;59.850;10.454;2022-12-01T10:04:49;4.23;;;3.00;;
19798;SDS011;10059;59.850;10.454;2022-12-01T10:07:19;4.47;;;3.37;;
19798;SDS011;10059;59.850;10.454;2022-12-01T10:09:51;4.77;;;3.10;;
19798;SDS011;10059;59.850;10.454;2022-12-01T10:12:21;4.60;;;3.03;;
19798;SDS011;10059;59.850;10.454;2022-12-01T10:14:52;4.90;;;3.20;;
19798;SDS011;10059;59.850;10.454;2022-12-01T10:17:27;5.17;;;3.40;;
19798;SDS011;10059;59.850;10.454;2022-12-01T10:20:02;7.37;;;4.17;;
19798;SDS011;10059;59.850;10.454;2022-12-01T10:22:44;5.70;;;4.10;;
19798;SDS011;10059;59.850;10.454;2022-12-01T10:25:26;5.87;;;3.60;;
19798;SDS011;10059;59.850;10.454;2022-12-01T10:28:01;3.83;;;2.90;;
19798;SDS011;10059;59.850;10.454;2022-12-01T10:30:40;3.53;;;2.80;;
19798;SDS011;10059;59.850;10.454;2022-12-01T10:33:18;4.33;;;2.80;;
19798;SDS011;10059;59.850;10.454;2022-12-01T10:35:49;4.20;;;2.83;;
19798;SDS011;10059;59.850;10.454;2022-12-01T10:38:20;5.27;;;2.70;;
19798;SDS011;10059;59.850;10.454;2022-12-01T10:40:50;3.90;;;2.80;;
19798;SDS011;10059;59.850;10.454;2022-12-01T10:43:19;3.93;;;3.03;;
19798;SDS011;10059;59.850;10.454;2022-12-01T10:45:53;4.40;;;2.73;;
19798;SDS011;10059;59.850;10.454;2022-12-01T10:48:22;4.37;;;3.00;;
19798;SDS011;10059;59.850;10.454;2022-12-01T10:50:50;3.30;;;2.47;;
19798;SDS011;10059;59.850;10.454;2022-12-01T10:53:25;4.40;;;3.00;;
19798;SDS011;10059;59.850;10.454;2022-12-01T10:55:58;4.27;;;2.63;;
19798;SDS011;10059;59.850;10.454;2022-12-01T11:00:58;4.97;;;2.90;;
19798;SDS011;10059;59.850;10.454;2022-12-01T11:03:30;4.00;;;2.90;;
19798;SDS011;10059;59.850;10.454;2022-12-01T11:05:59;3.97;;;2.73;;
19798;SDS011;10059;59.850;10.454;2022-12-01T11:08:30;4.57;;;3.07;;
19798;SDS011;10059;59.850;10.454;2022-12-01T11:11:01;4.93;;;3.27;;
19798;SDS011;10059;59.850;10.454;2022-12-01T11:13:29;4.93;;;3.30;;
19798;SDS011;10059;59.850;10.454;2022-12-01T11:15:59;3.53;;;2.50;;
19798;SDS011;10059;59.850;10.454;2022-12-01T11:18:28;5.60;;;3.00;;
19798;SDS011;10059;59.850;10.454;2022-12-01T11:21:08;4.57;;;2.80;;
19798;SDS011;10059;59.850;10.454;2022-12-01T11:23:37;6.20;;;2.60;;
19798;SDS011;10059;59.850;10.454;2022-12-01T11:26:11;3.57;;;2.57;;
19798;SDS011;10059;59.850;10.454;2022-12-01T11:28:41;4.53;;;2.50;;
19798;SDS011;10059;59.850;10.454;2022-12-01T11:31:17;4.73;;;2.97;;
19798;SDS011;10059;59.850;10.454;2022-12-01T11:33:47;5.70;;;3.30;;
19798;SDS011;10059;59.850;10.454;2022-12-01T11:39:03;5.00;;;3.10;;
19798;SDS011;10059;59.850;10.454;2022-12-01T11:41:31;4.37;;;2.80;;
19798;SDS011;10059;59.850;10.454;2022-12-01T11:44:02;3.97;;;2.67;;
19798;SDS011;10059;59.850;10.454;2022-12-01T11:46:31;4.33;;;2.90;;
19798;SDS011;10059;59.850;10.454;2022-12-01T11:49:02;6.50;;;3.40;;
19798;SDS011;10059;59.850;10.454;2022-12-01T11:51:29;7.13;;;3.33;;
19798;SDS011;10059;59.850;10.454;2022-12-01T11:54:06;4.33;;;3.03;;
19798;SDS011;10059;59.850;10.454;2022-12-01T11:56:40;5.67;;;3.13;;
19798;SDS011;10059;59.850;10.454;2022-12-01T11:59:09;7.23;;;3.73;;
19798;SDS011;10059;59.850;10.454;2022-12-01T12:04:46;9.07;;;4.70;;
19798;SDS011;10059;59.850;10.454;2022-12-01T12:07:25;7.33;;;4.00;;
19798;SDS011;10059;59.850;10.454;2022-12-01T12:10:04;10.17;;;4.70;;
19798;SDS011;10059;59.850;10.454;2022-12-01T12:12:48;6.37;;;4.00;;
19798;SDS011;10059;59.850;10.454;2022-12-01T12:15:27;6.00;;;3.93;;
19798;SDS011;10059;59.850;10.454;2022-12-01T12:18:10;4.50;;;3.00;;
19798;SDS011;10059;59.850;10.454;2022-12-01T12:20:54;5.00;;;3.50;;
19798;SDS011;10059;59.850;10.454;2022-12-01T12:26:28;4.37;;;2.90;;
19798;SDS011;10059;59.850;10.454;2022-12-01T12:29:10;4.63;;;3.00;;
19798;SDS011;10059;59.850;10.454;2022-12-01T12:31:50;5.03;;;3.17;;
19798;SDS011;10059;59.850;10.454;2022-12-01T12:34:27;5.00;;;3.17;;
19798;SDS011;10059;59.850;10.454;2022-12-01T12:37:08;4.97;;;2.97;;
19798;SDS011;10059;59.850;10.454;2022-12-01T12:39:58;6.33;;;3.10;;
19798;SDS011;10059;59.850;10.454;2022-12-01T12:42:42;3.80;;;2.50;;
19798;SDS011;10059;59.850;10.454;2022-12-01T12:45:19;5.27;;;2.87;;
19798;SDS011;10059;59.850;10.454;2022-12-01T12:47:55;5.80;;;2.83;;
19798;SDS011;10059;59.850;10.454;2022-12-01T12:50:34;4.47;;;2.83;;
19798;SDS011;10059;59.850;10.454;2022-12-01T12:53:08;5.10;;;2.97;;
19798;SDS011;10059;59.850;10.454;2022-12-01T12:55:42;5.80;;;3.53;;
19798;SDS011;10059;59.850;10.454;2022-12-01T12:58:12;4.57;;;2.93;;
19798;SDS011;10059;59.850;10.454;2022-12-01T13:00:45;4.00;;;2.70;;
19798;SDS011;10059;59.850;10.454;2022-12-01T13:03:18;4.43;;;2.63;;
19798;SDS011;10059;59.850;10.454;2022-12-01T13:05:49;4.70;;;2.83;;
19798;SDS011;10059;59.850;10.454;2022-12-01T13:08:23;5.13;;;2.63;;
19798;SDS011;10059;59.850;10.454;2022-12-01T13:10:56;4.70;;;2.70;;
19798;SDS011;10059;59.850;10.454;2022-12-01T13:13:29;4.40;;;2.83;;
19798;SDS011;10059;59.850;10.454;2022-12-01T13:16:02;5.60;;;3.03;;
19798;SDS011;10059;59.850;10.454;2022-12-01T13:18:32;5.53;;;3.00;;
19798;SDS011;10059;59.850;10.454;2022-12-01T13:21:03;5.30;;;2.80;;
19798;SDS011;10059;59.850;10.454;2022-12-01T13:23:33;5.50;;;3.00;;
19798;SDS011;10059;59.850;10.454;2022-12-01T13:26:04;3.80;;;2.73;;
19798;SDS011;10059;59.850;10.454;2022-12-01T13:28:34;5.83;;;3.27;;
19798;SDS011;10059;59.850;10.454;2022-12-01T13:31:05;4.73;;;2.90;;
19798;SDS011;10059;59.850;10.454;2022-12-01T13:33:33;4.20;;;3.20;;
19798;SDS011;10059;59.850;10.454;2022-12-01T13:36:06;4.30;;;2.90;;
19798;SDS011;10059;59.850;10.454;2022-12-01T13:38:35;3.70;;;2.63;;
19798;SDS011;10059;59.850;10.454;2022-12-01T13:41:10;5.27;;;2.73;;
19798;SDS011;10059;59.850;10.454;2022-12-01T13:43:52;5.07;;;2.90;;
19798;SDS011;10059;59.850;10.454;2022-12-01T13:46:23;4.57;;;2.73;;
19798;SDS011;10059;59.850;10.454;2022-12-01T13:48:52;5.00;;;2.90;;
19798;SDS011;10059;59.850;10.454;2022-12-01T13:51:20;4.73;;;3.10;;
19798;SDS011;10059;59.850;10.454;2022-12-01T13:53:56;5.17;;;3.57;;
19798;SDS011;10059;59.850;10.454;2022-12-01T13:56:37;15.23;;;7.23;;
19798;SDS011;10059;59.850;10.454;2022-12-01T14:02:13;12.77;;;6.77;;
19798;SDS011;10059;59.850;10.454;2022-12-01T14:04:42;13.87;;;7.73;;
19798;SDS011;10059;59.850;10.454;2022-12-01T14:07:20;10.87;;;4.47;;
19798;SDS011;10059;59.850;10.454;2022-12-01T14:09:53;6.87;;;3.80;;
19798;SDS011;10059;59.850;10.454;2022-12-01T14:12:24;13.43;;;6.63;;
19798;SDS011;10059;59.850;10.454;2022-12-01T14:14:56;8.43;;;4.80;;
19798;SDS011;10059;59.850;10.454;2022-12-01T14:17:26;5.80;;;3.43;;
19798;SDS011;10059;59.850;10.454;2022-12-01T14:20:02;7.43;;;3.77;;
19798;SDS011;10059;59.850;10.454;2022-12-01T14:22:33;6.03;;;3.80;;
19798;SDS011;10059;59.850;10.454;2022-12-01T14:25:05;4.97;;;3.23;;
19798;SDS011;10059;59.850;10.454;2022-12-01T14:27:48;5.80;;;3.20;;
19798;SDS011;10059;59.850;10.454;2022-12-01T14:36:20;3.87;;;2.37;;
19798;SDS011;10059;59.850;10.454;2022-12-01T14:39:04;4.80;;;3.07;;
19798;SDS011;10059;59.850;10.454;2022-12-01T14:41:40;5.47;;;3.07;;
19798;SDS011;10059;59.850;10.454;2022-12-01T14:44:11;6.83;;;3.57;;
19798;SDS011;10059;59.850;10.454;2022-12-01T14:46:44;5.30;;;3.00;;
19798;SDS011;10059;59.850;10.454;2022-12-01T14:49:21;6.23;;;3.50;;
19798;SDS011;10059;59.850;10.454;2022-12-01T14:51:54;3.90;;;2.63;;
19798;SDS011;10059;59.850;10.454;2022-12-01T14:54:29;4.50;;;2.80;;
19798;SDS011;10059;59.850;10.454;2022-12-01T14:57:02;4.63;;;2.90;;
19798;SDS011;10059;59.850;10.454;2022-12-01T14:59:30;6.20;;;3.83;;
19798;SDS011;10059;59.850;10.454;2022-12-01T15:01:58;8.30;;;4.33;;
19798;SDS011;10059;59.850;10.454;2022-12-01T15:04:33;6.93;;;3.93;;
19798;SDS011;10059;59.850;10.454;2022-12-01T15:07:01;5.03;;;3.23;;
19798;SDS011;10059;59.850;10.454;2022-12-01T15:09:28;6.87;;;3.70;;
19798;SDS011;10059;59.850;10.454;2022-12-01T15:11:58;6.53;;;4.00;;
19798;SDS011;10059;59.850;10.454;2022-12-01T15:14:29;6.10;;;3.77;;
19798;SDS011;10059;59.850;10.454;2022-12-01T15:17:00;5.70;;;3.80;;